Time;durP1;ratioP1;P1;durP2;ratioP2;P2;SDS_P1;SDS_P2;PMS_P1;PMS_P2;Temp;Humidity;BMP_temperature;BMP_pressure;BME280_temperature;BME280_humidity;BME280_pressure;Samples;Min_cycle;Max_cycle;Signal;HPM_P1;HPM_P2
2021/03/10 00:00:06;;;;;;;22.20;14.00;;;4.40;98.30;;;;;;4967485;23;20836;-84
2021/03/10 00:03:09;;;;;;;21.50;12.95;;;4.50;98.30;;;;;;5096068;23;20452;-84
2021/03/10 00:05:46;;;;;;;18.25;14.43;;;4.40;98.30;;;;;;5048830;23;20225;-84
2021/03/10 00:08:30;;;;;;;;;;;;;;;;;;;;;
2021/03/10 00:10:46;;;;;;;;;;;;;;;;;;;;;
2021/03/10 00:13:16;;;;;;;16.63;14.60;;;4.30;98.30;;;;;;5127969;23;20202;-84
2021/03/10 00:15:44;;;;;;;22.80;13.43;;;4.30;98.30;;;;;;5126871;23;20210;-84
2021/03/10 00:23:56;;;;;;;20.08;13.23;;;4.30;98.30;;;;;;5070893;23;20195;-85
2021/03/10 00:26:20;;;;;;;;;;;;;;;;;;;;;
2021/03/10 00:52:48;;;;;;;20.00;14.13;;;4.00;98.30;;;;;;4818058;24;20221;-83
2021/03/10 00:54:51;;;;;;;18.65;12.40;;;4.00;98.30;;;;;;4892449;24;20341;-83
2021/03/10 00:57:17;;;;;;;18.90;13.90;;;4.00;98.30;;;;;;4990883;23;20321;-84
2021/03/10 00:59:21;;;;;;;17.40;13.90;;;4.10;98.30;;;;;;5000144;23;20698;-82
2021/03/10 01:01:23;;;;;;;18.73;13.25;;;4.10;98.30;;;;;;5000156;23;20242;-83
2021/03/10 01:03:29;;;;;;;21.80;15.48;;;4.10;98.30;;;;;;5000182;23;20251;-84
2021/03/10 01:05:57;;;;;;;19.73;13.65;;;4.10;98.30;;;;;;5000068;23;20218;-84
2021/03/10 01:08:15;;;;;;;18.90;13.15;;;4.10;98.30;;;;;;5000102;23;20662;-83
2021/03/10 01:10:38;;;;;;;19.48;13.75;;;4.20;98.30;;;;;;5000148;23;20214;-84
2021/03/10 01:15:21;;;;;;;23.17;15.07;;;4.00;98.30;;;;;;4987512;23;20632;-82
2021/03/10 01:17:28;;;;;;;18.10;13.23;;;4.00;98.30;;;;;;4976828;23;20263;-84
2021/03/10 01:19:49;;;;;;;33.63;18.63;;;4.00;98.30;;;;;;5063169;23;20546;-84
2021/03/10 01:22:17;;;;;;;;;;;;;;;;;;;;;
2021/03/10 01:54:00;;;;;;;19.02;13.95;;;3.90;98.30;;;;;;4768474;24;20224;-84
2021/03/10 01:56:32;;;;;;;20.52;14.75;;;3.90;98.30;;;;;;4876941;24;20932;-83
2021/03/10 01:58:49;;;;;;;19.92;14.32;;;3.90;98.30;;;;;;4963612;23;20210;-83
2021/03/10 02:01:02;;;;;;;21.52;14.80;;;4.00;98.30;;;;;;4992011;23;20758;-83
2021/03/10 02:04:04;;;;;;;;;;;;;;;;;;;;;
2021/03/10 02:07:47;;;;;;;;;;;;;;;;;;;;;
2021/03/10 02:16:44;;;;;;;;;;;;;;;;;;;;;
2021/03/10 02:23:26;;;;;;;20.88;15.55;;;3.80;98.30;;;;;;4943169;24;20341;-84
2021/03/10 02:31:50;;;;;;;18.33;14.85;;;3.80;98.30;;;;;;4786382;24;20208;-81
2021/03/10 02:33:57;;;;;;;19.60;14.80;;;3.80;98.30;;;;;;4839854;24;20794;-85
2021/03/10 02:36:05;;;;;;;18.55;15.20;;;3.80;98.30;;;;;;4839334;24;20212;-84
2021/03/10 02:38:15;;;;;;;18.52;13.65;;;3.70;98.30;;;;;;4894962;24;20235;-84
2021/03/10 02:40:48;;;;;;;18.45;14.38;;;3.70;98.30;;;;;;4953502;24;20569;-83
2021/03/10 02:49:48;;;;;;;20.27;16.85;;;3.70;98.30;;;;;;4921671;24;20212;-84
2021/03/10 02:52:22;;;;;;;20.50;15.85;;;3.70;98.30;;;;;;4808825;24;20332;-83
2021/03/10 02:54:48;;;;;;;19.48;14.13;;;3.50;98.30;;;;;;4817398;24;20728;-85
2021/03/10 02:56:56;;;;;;;19.00;14.70;;;3.40;98.30;;;;;;4903863;23;20299;-84
2021/03/10 03:02:47;;;;;;;21.23;14.27;;;3.40;98.30;;;;;;4935523;24;20276;-83
2021/03/10 03:05:21;;;;;;;19.27;13.45;;;3.40;98.30;;;;;;4954796;23;20208;-83
2021/03/10 03:07:41;;;;;;;16.85;13.30;;;3.50;98.30;;;;;;4942220;23;20732;-84
2021/03/10 03:53:34;;;;;;;13.65;11.25;;;3.30;98.30;;;;;;4755177;24;20221;-84
2021/03/10 03:55:36;;;;;;;13.23;9.85;;;3.20;98.30;;;;;;4815179;24;20291;-84
2021/03/10 04:00:55;;;;;;;13.98;10.80;;;3.10;98.30;;;;;;4953784;24;20236;-83
2021/03/10 04:03:14;;;;;;;16.27;11.38;;;3.00;98.30;;;;;;4930990;24;20217;-84
2021/03/10 04:08:23;;;;;;;13.85;10.80;;;3.10;98.30;;;;;;4920607;24;20211;-84
2021/03/10 04:10:27;;;;;;;14.90;10.30;;;3.20;97.90;;;;;;4953547;24;20286;-83
2021/03/10 04:12:31;;;;;;;13.27;10.20;;;3.20;97.60;;;;;;4954140;24;20492;-83
2021/03/10 04:15:26;;;;;;;;;;;;;;;;;;;;;
2021/03/10 04:20:53;;;;;;;12.38;9.85;;;2.90;97.70;;;;;;4921748;24;20299;-83
2021/03/10 04:23:12;;;;;;;12.52;10.20;;;2.90;97.50;;;;;;4931704;24;20208;-84
2021/03/10 04:25:21;;;;;;;12.90;10.30;;;3.00;97.60;;;;;;4931525;24;20241;-83
2021/03/10 04:27:25;;;;;;;11.25;9.48;;;2.90;97.30;;;;;;4930577;24;20676;-84
2021/03/10 04:29:39;;;;;;;14.23;10.50;;;2.80;97.60;;;;;;4930108;24;20839;-85
2021/03/10 04:32:23;;;;;;;;;;;;;;;;;;;;;
2021/03/10 04:38:24;;;;;;;12.18;9.45;;;2.80;97.50;;;;;;4825729;24;20275;-84
2021/03/10 04:41:18;;;;;;;11.88;8.48;;;2.80;97.70;;;;;;4878414;24;21027;-84
2021/03/10 04:43:44;;;;;;;12.43;9.70;;;2.80;97.70;;;;;;4913409;24;20594;-84
2021/03/10 04:46:14;;;;;;;11.43;9.80;;;2.80;97.70;;;;;;4890626;24;20213;-84
2021/03/10 04:48:48;;;;;;;11.40;9.00;;;2.80;97.60;;;;;;4929813;24;20332;-83
2021/03/10 04:50:58;;;;;;;11.52;9.80;;;2.80;97.60;;;;;;4930372;24;20212;-85
2021/03/10 04:53:13;;;;;;;12.60;9.65;;;2.70;97.80;;;;;;4930260;24;20205;-84
2021/03/10 05:03:32;;;;;;;11.55;9.18;;;2.60;97.90;;;;;;4749268;24;20217;-84
2021/03/10 05:07:07;;;;;;;;;;;;;;;;;;;;;
2021/03/10 08:54:12;;;;;;;18.05;13.50;;;4.40;98.30;;;;;;5165976;23;20212;-82
2021/03/10 08:56:14;;;;;;;16.65;12.70;;;4.40;98.30;;;;;;5175480;23;20716;-81
2021/03/10 08:58:21;;;;;;;19.33;14.45;;;4.50;98.30;;;;;;5175598;23;20204;-81
2021/03/10 09:00:26;;;;;;;18.83;13.55;;;4.50;98.30;;;;;;5166852;23;20284;-80
2021/03/10 09:02:30;;;;;;;22.70;15.38;;;4.50;98.30;;;;;;5174586;23;20232;-81
2021/03/10 09:04:33;;;;;;;22.73;17.20;;;4.40;98.30;;;;;;5175046;23;20660;-82
2021/03/10 09:06:45;;;;;;;21.70;14.55;;;4.40;98.30;;;;;;5175587;23;20205;-82
2021/03/10 09:08:47;;;;;;;23.20;16.98;;;4.40;98.30;;;;;;5182700;23;20256;-82
2021/03/10 09:10:51;;;;;;;23.05;14.50;;;4.50;98.30;;;;;;5183153;23;20212;-82
2021/03/10 09:12:54;;;;;;;18.33;13.00;;;4.30;98.30;;;;;;5172869;23;20208;-81
2021/03/10 09:14:56;;;;;;;24.20;16.65;;;4.30;98.30;;;;;;5178523;23;20208;-81
2021/03/10 09:17:00;;;;;;;24.45;17.52;;;4.40;98.30;;;;;;5175174;23;20274;-80
2021/03/10 09:19:03;;;;;;;21.50;16.08;;;4.50;98.30;;;;;;5174478;23;20197;-82
2021/03/10 09:21:05;;;;;;;26.40;17.43;;;4.50;98.30;;;;;;5174926;23;20197;-81
2021/03/10 09:23:09;;;;;;;27.58;14.80;;;4.60;98.30;;;;;;5174896;23;20460;-82
2021/03/10 09:25:18;;;;;;;24.65;15.70;;;4.60;98.30;;;;;;5175383;23;20193;-83
2021/03/10 09:27:23;;;;;;;28.00;18.33;;;4.50;98.30;;;;;;5166721;23;20688;-83
2021/03/10 09:29:25;;;;;;;25.27;16.30;;;4.60;98.30;;;;;;5174618;23;20272;-82
2021/03/10 09:31:28;;;;;;;25.25;17.20;;;4.80;98.30;;;;;;5174850;23;20197;-83
2021/03/10 09:33:33;;;;;;;31.60;16.70;;;4.70;98.30;;;;;;5174929;23;20197;-83
2021/03/10 09:35:38;;;;;;;24.45;15.73;;;4.80;98.30;;;;;;5174480;23;20203;-83
2021/03/10 09:37:49;;;;;;;24.10;17.02;;;4.80;98.30;;;;;;5174771;23;20276;-82
2021/03/10 09:39:54;;;;;;;27.35;16.08;;;4.70;98.30;;;;;;5174825;23;20205;-83
2021/03/10 09:41:58;;;;;;;26.90;15.15;;;4.90;98.30;;;;;;5166776;23;20211;-83
2021/03/10 09:44:04;;;;;;;27.05;17.10;;;4.90;98.30;;;;;;5166987;23;20274;-83
2021/03/10 09:46:09;;;;;;;29.17;17.58;;;4.90;98.30;;;;;;5175325;23;20220;-83
2021/03/10 09:48:19;;;;;;;30.25;17.20;;;5.00;98.30;;;;;;5167405;23;20209;-83
2021/03/10 09:50:29;;;;;;;28.45;16.77;;;5.00;98.30;;;;;;5177922;23;20972;-83
2021/03/10 09:52:36;;;;;;;31.52;18.80;;;5.00;98.30;;;;;;5176894;23;20204;-83
2021/03/10 09:54:53;;;;;;;26.70;18.17;;;5.10;98.30;;;;;;5177665;23;20676;-83
2021/03/10 09:56:58;;;;;;;28.50;18.90;;;5.20;98.30;;;;;;5177037;23;20247;-82
2021/03/10 09:59:11;;;;;;;34.50;18.70;;;5.20;98.30;;;;;;5177097;23;20927;-83
2021/03/10 10:01:19;;;;;;;32.70;19.23;;;5.10;98.30;;;;;;5177384;23;20478;-83
2021/03/10 10:03:26;;;;;;;29.93;17.63;;;5.20;98.30;;;;;;5175570;23;20451;-83
2021/03/10 10:05:30;;;;;;;30.17;19.15;;;5.20;98.30;;;;;;5176483;23;20477;-83
2021/03/10 10:07:32;;;;;;;32.13;19.33;;;5.20;98.30;;;;;;5179691;23;20200;-83
2021/03/10 10:09:41;;;;;;;28.33;19.00;;;5.10;98.30;;;;;;5180117;23;20440;-82
2021/03/10 10:11:54;;;;;;;;;;;;;;;;;;;;;
2021/03/10 10:13:56;;;;;;;23.90;14.73;;;5.10;98.30;;;;;;5174296;23;20578;-83
2021/03/10 10:15:59;;;;;;;29.10;15.87;;;5.20;98.30;;;;;;5179709;23;20439;-82
2021/03/10 10:18:06;;;;;;;27.70;16.80;;;5.40;98.30;;;;;;5168675;23;20444;-82
2021/03/10 10:20:09;;;;;;;29.43;15.90;;;5.50;98.30;;;;;;5177341;23;20875;-82
2021/03/10 10:22:12;;;;;;;24.60;15.53;;;5.50;98.30;;;;;;5180039;23;20448;-83
2021/03/10 10:24:16;;;;;;;30.83;16.53;;;5.60;98.30;;;;;;5175588;23;20477;-81
2021/03/10 10:26:18;;;;;;;29.87;15.83;;;5.60;98.30;;;;;;5174122;23;21050;-82
2021/03/10 10:28:21;;;;;;;24.10;15.07;;;5.80;98.30;;;;;;5176454;23;21019;-81
2021/03/10 10:30:23;;;;;;;27.20;15.63;;;5.90;98.30;;;;;;5175989;23;20455;-82
2021/03/10 10:32:31;;;;;;;27.07;16.47;;;5.80;98.30;;;;;;5164881;23;20459;-83
2021/03/10 10:34:36;;;;;;;23.77;15.80;;;5.60;98.30;;;;;;5173793;23;20769;-82
2021/03/10 10:36:38;;;;;;;29.37;16.23;;;5.60;98.30;;;;;;5174263;23;20463;-82
2021/03/10 10:38:54;;;;;;;24.67;15.30;;;5.80;98.30;;;;;;5174194;23;21110;-82
2021/03/10 10:40:57;;;;;;;30.03;15.27;;;5.90;98.30;;;;;;5174270;23;21275;-83
2021/03/10 10:43:01;;;;;;;25.67;15.93;;;6.10;98.30;;;;;;5172830;23;20455;-82
2021/03/10 10:45:08;;;;;;;24.53;15.53;;;6.10;98.30;;;;;;5175772;23;20985;-82
2021/03/10 10:47:11;;;;;;;30.40;17.57;;;6.00;98.30;;;;;;5173833;23;20509;-82
2021/03/10 10:49:26;;;;;;;27.67;15.70;;;6.00;98.30;;;;;;5175340;23;20744;-83
2021/03/10 10:51:31;;;;;;;27.67;16.97;;;6.10;98.30;;;;;;5175670;23;20452;-86
2021/03/10 14:48:25;;;;;;;24.57;12.73;;;7.50;94.00;;;;;;5126662;23;20773;-80
2021/03/10 14:50:43;;;;;;;22.83;13.17;;;7.50;94.00;;;;;;5115561;23;20445;-80
2021/03/10 14:52:58;;;;;;;21.70;14.70;;;7.50;94.00;;;;;;5123147;23;20782;-81
2021/03/10 14:55:11;;;;;;;23.37;14.17;;;7.50;93.90;;;;;;5123165;23;21199;-81
2021/03/10 14:57:17;;;;;;;28.17;14.60;;;7.50;94.20;;;;;;5124003;23;20496;-80
2021/03/10 14:59:22;;;;;;;20.87;13.70;;;7.40;94.50;;;;;;5115322;23;20537;-81
2021/03/10 15:08:44;;;;;;;24.73;13.73;;;7.20;95.40;;;;;;4981157;23;20415;-81
2021/03/10 15:19:01;;;;;;;22.40;14.50;;;7.20;95.60;;;;;;5126934;22;21029;-82
2021/03/10 15:21:05;;;;;;;27.90;13.63;;;7.10;95.90;;;;;;5175689;23;20451;-79
2021/03/10 15:23:42;;;;;;;22.67;13.87;;;7.20;96.00;;;;;;5174600;23;20494;-81
2021/03/10 15:28:17;;;;;;;20.87;14.27;;;7.10;96.50;;;;;;5164348;23;20455;-79
2021/03/10 15:30:22;;;;;;;24.10;15.17;;;7.00;96.90;;;;;;5173940;23;20455;-79
2021/03/10 15:32:25;;;;;;;26.37;15.33;;;7.00;97.20;;;;;;5167001;23;20501;-78
2021/03/10 15:35:29;;;;;;;22.70;13.80;;;7.00;97.50;;;;;;5174966;23;20526;-79
2021/03/10 15:37:36;;;;;;;26.60;15.07;;;7.00;97.70;;;;;;5112959;23;21264;-80
2021/03/10 16:00:47;;;;;;;21.00;12.67;;;6.80;98.30;;;;;;4956771;23;20467;-80
2021/03/10 16:02:51;;;;;;;24.90;15.77;;;6.80;98.30;;;;;;5074805;23;20426;-80
2021/03/10 16:04:54;;;;;;;24.77;15.80;;;6.90;98.30;;;;;;5075010;23;20457;-80
2021/03/10 16:06:59;;;;;;;25.03;16.20;;;6.90;98.30;;;;;;5164478;23;20790;-80
2021/03/10 16:09:01;;;;;;;27.80;15.60;;;6.80;98.30;;;;;;5176978;23;20458;-80
2021/03/10 16:11:06;;;;;;;27.87;16.70;;;6.90;98.30;;;;;;5176663;23;20470;-80
2021/03/10 16:13:12;;;;;;;31.07;17.10;;;6.80;98.30;;;;;;5177151;23;20485;-80
2021/03/10 16:15:17;;;;;;;30.70;17.53;;;6.70;98.30;;;;;;5168307;23;20468;-80
2021/03/10 16:17:19;;;;;;;28.77;16.60;;;6.80;98.30;;;;;;5176458;23;20490;-80
2021/03/10 16:19:22;;;;;;;22.17;14.00;;;6.90;98.30;;;;;;5176467;23;20445;-80
2021/03/10 16:21:29;;;;;;;28.60;16.97;;;6.80;98.30;;;;;;5176909;23;20448;-80
2021/03/10 16:23:32;;;;;;;24.47;14.90;;;6.80;98.30;;;;;;5176737;23;20450;-80
2021/03/10 16:28:46;;;;;;;30.47;17.60;;;6.60;98.30;;;;;;5036101;23;20444;-80
2021/03/10 16:30:48;;;;;;;29.13;16.43;;;6.60;98.30;;;;;;5158825;23;20453;-81
2021/03/10 16:32:53;;;;;;;26.90;16.10;;;6.60;98.30;;;;;;5175755;23;20953;-80
2021/03/10 16:34:58;;;;;;;26.63;16.37;;;6.50;98.30;;;;;;5176394;23;20522;-80
2021/03/10 16:37:00;;;;;;;32.57;17.37;;;6.50;98.30;;;;;;5177088;23;20843;-80
2021/03/10 16:39:03;;;;;;;27.50;16.37;;;6.50;98.30;;;;;;5176140;23;20452;-80
2021/03/10 16:41:05;;;;;;;28.90;16.27;;;6.50;98.30;;;;;;5176561;23;20466;-80
2021/03/10 16:43:08;;;;;;;28.10;17.20;;;6.50;98.30;;;;;;5176094;23;21008;-81
2021/03/10 16:45:13;;;;;;;29.93;17.03;;;6.40;98.30;;;;;;5176447;23;20447;-82
2021/03/10 16:47:25;;;;;;;27.53;16.50;;;6.40;98.30;;;;;;5176402;23;21013;-80
2021/03/10 16:49:27;;;;;;;29.17;18.03;;;6.50;98.30;;;;;;5176328;23;20454;-80
2021/03/10 16:51:29;;;;;;;24.67;14.83;;;6.50;98.30;;;;;;5176491;23;20472;-80
2021/03/10 16:53:31;;;;;;;32.20;19.60;;;6.50;98.30;;;;;;5175241;23;20451;-80
2021/03/10 16:55:35;;;;;;;27.07;17.97;;;6.40;98.30;;;;;;5174611;23;20961;-79
2021/03/10 16:57:37;;;;;;;32.67;19.37;;;6.40;98.30;;;;;;5174276;23;20456;-80
2021/03/10 16:59:39;;;;;;;32.90;19.27;;;6.40;98.30;;;;;;5174360;23;20883;-80
2021/03/10 17:01:44;;;;;;;37.10;22.37;;;6.40;98.30;;;;;;5174747;23;20475;-79
2021/03/10 17:03:47;;;;;;;30.03;18.40;;;6.40;98.30;;;;;;5166132;23;20460;-79
2021/03/10 17:05:49;;;;;;;34.43;18.90;;;6.30;98.30;;;;;;5174632;23;20447;-79
2021/03/10 17:07:51;;;;;;;30.67;17.37;;;6.30;98.30;;;;;;5174516;23;20487;-79
2021/03/10 17:09:53;;;;;;;34.80;18.47;;;6.40;98.30;;;;;;5174245;23;20483;-79
2021/03/10 17:11:56;;;;;;;36.97;19.67;;;6.30;98.30;;;;;;5174716;23;20466;-79
2021/03/10 17:13:58;;;;;;;32.53;19.93;;;6.30;98.30;;;;;;5174236;23;20449;-80
2021/03/10 17:16:00;;;;;;;30.40;18.50;;;6.40;98.30;;;;;;5174283;23;20537;-79
2021/03/10 17:18:04;;;;;;;34.10;20.30;;;6.30;98.30;;;;;;5166264;23;20479;-79
2021/03/10 17:20:07;;;;;;;30.60;19.90;;;6.30;98.30;;;;;;5174275;23;20446;-79
2021/03/10 17:22:09;;;;;;;34.13;22.63;;;6.30;98.30;;;;;;5174425;23;20441;-79
2021/03/10 17:24:12;;;;;;;29.30;20.07;;;6.40;98.30;;;;;;5174759;23;20493;-79
2021/03/10 17:26:14;;;;;;;28.07;19.30;;;6.40;98.30;;;;;;5166507;23;20837;-79
2021/03/10 17:28:16;;;;;;;27.90;19.20;;;6.40;98.30;;;;;;5174588;23;20455;-79
2021/03/10 17:30:22;;;;;;;31.20;20.13;;;6.40;98.30;;;;;;5173923;23;20452;-80
2021/03/10 17:32:25;;;;;;;30.20;18.70;;;6.40;98.30;;;;;;5166214;23;20457;-79
2021/03/10 17:34:28;;;;;;;30.83;20.07;;;6.40;98.30;;;;;;5174491;23;20449;-79
2021/03/10 17:36:30;;;;;;;33.80;21.07;;;6.30;98.30;;;;;;5174310;23;20495;-79
2021/03/10 17:38:32;;;;;;;28.73;18.13;;;6.30;98.30;;;;;;5174265;23;20477;-79
2021/03/10 17:40:35;;;;;;;33.60;20.63;;;6.40;98.30;;;;;;5174580;23;20443;-79
2021/03/10 17:42:37;;;;;;;34.30;20.20;;;6.40;98.30;;;;;;5174797;23;20473;-79
2021/03/10 17:44:39;;;;;;;32.17;19.97;;;6.30;98.30;;;;;;5174263;23;20870;-79
2021/03/10 17:46:42;;;;;;;29.97;18.97;;;6.30;98.30;;;;;;5174263;23;20455;-80
2021/03/10 17:48:44;;;;;;;33.00;20.27;;;6.30;98.30;;;;;;5174149;23;20975;-79
2021/03/10 17:50:48;;;;;;;30.10;17.33;;;6.40;98.30;;;;;;5174135;23;20454;-79
2021/03/10 17:52:50;;;;;;;34.13;20.03;;;6.40;98.30;;;;;;5173913;23;21064;-82
2021/03/10 17:58:46;;;;;;;29.27;18.47;;;6.30;98.30;;;;;;5033622;23;20515;-79
2021/03/10 18:00:49;;;;;;;32.43;21.70;;;6.30;98.30;;;;;;5122150;23;20554;-80
2021/03/10 18:02:53;;;;;;;27.13;17.60;;;6.30;98.30;;;;;;5173436;23;20452;-82
2021/03/10 18:04:55;;;;;;;35.17;21.37;;;6.30;98.30;;;;;;5174453;23;20453;-79
2021/03/10 18:06:58;;;;;;;33.73;19.17;;;6.30;98.30;;;;;;5174774;23;20471;-78
2021/03/10 18:09:01;;;;;;;36.37;19.97;;;6.30;98.30;;;;;;5173375;23;20440;-79
2021/03/10 18:11:06;;;;;;;30.00;18.63;;;6.20;98.30;;;;;;5173604;23;21003;-77
2021/03/10 18:13:08;;;;;;;32.13;19.17;;;6.30;98.30;;;;;;5174363;23;20510;-79
2021/03/10 18:15:20;;;;;;;32.33;19.17;;;6.20;98.30;;;;;;5173947;23;20524;-80
2021/03/10 18:17:26;;;;;;;28.93;19.27;;;6.20;98.30;;;;;;5173748;23;20450;-79
2021/03/10 18:22:56;;;;;;;30.87;18.77;;;6.30;98.30;;;;;;5161998;23;20471;-81
2021/03/10 18:25:24;;;;;;;30.70;17.90;;;6.20;98.30;;;;;;5173592;23;20493;-80
2021/03/10 21:23:48;;;;;;;36.00;19.27;;;6.40;98.30;;;;;;5164575;22;20445;-79
2021/03/10 21:26:28;;;;;;;33.30;16.50;;;6.40;98.30;;;;;;5160738;22;20979;-80
2021/03/10 21:29:16;;;;;;;33.60;18.60;;;6.30;98.30;;;;;;5144800;22;20832;-78
2021/03/10 21:31:29;;;;;;;36.80;18.87;;;6.30;98.30;;;;;;5164413;22;20445;-77
2021/03/10 21:37:48;;;;;;;32.97;16.13;;;6.30;98.30;;;;;;5121206;23;20457;-76
2021/03/10 21:43:29;;;;;;;33.33;18.43;;;6.40;98.30;;;;;;5113431;23;20529;-79
2021/03/10 23:51:04;;;;;;;47.83;26.87;;;5.80;98.30;;;;;;4816357;24;20422;-82
